sensor_id;sensor_type;location;lat;lon;timestamp;P1;durP1;ratioP1;P2;durP2;ratioP2
78116;SDS011;69042;59.120;37.904;2024-03-17T00:01:11;13.70;;;6.05;;
78116;SDS011;69042;59.120;37.904;2024-03-17T00:03:39;12.20;;;6.47;;
78116;SDS011;69042;59.120;37.904;2024-03-17T00:06:06;13.13;;;6.38;;
78116;SDS011;69042;59.120;37.904;2024-03-17T00:08:34;11.90;;;6.10;;
78116;SDS011;69042;59.120;37.904;2024-03-17T00:11:00;14.75;;;6.88;;
78116;SDS011;69042;59.120;37.904;2024-03-17T00:13:26;14.32;;;6.80;;
78116;SDS011;69042;59.120;37.904;2024-03-17T00:15:53;12.05;;;5.53;;
78116;SDS011;69042;59.120;37.904;2024-03-17T00:18:20;13.38;;;6.43;;
78116;SDS011;69042;59.120;37.904;2024-03-17T00:20:46;14.68;;;6.65;;
78116;SDS011;69042;59.120;37.904;2024-03-17T00:23:12;12.32;;;6.63;;
78116;SDS011;69042;59.120;37.904;2024-03-17T00:25:39;16.80;;;7.03;;
78116;SDS011;69042;59.120;37.904;2024-03-17T00:28:06;14.25;;;6.05;;
78116;SDS011;69042;59.120;37.904;2024-03-17T00:30:32;11.88;;;6.05;;
78116;SDS011;69042;59.120;37.904;2024-03-17T00:32:58;12.90;;;6.47;;
78116;SDS011;69042;59.120;37.904;2024-03-17T00:35:26;14.73;;;6.88;;
78116;SDS011;69042;59.120;37.904;2024-03-17T00:37:52;14.77;;;6.38;;
78116;SDS011;69042;59.120;37.904;2024-03-17T00:40:19;14.02;;;6.47;;
78116;SDS011;69042;59.120;37.904;2024-03-17T00:42:46;11.32;;;6.40;;
78116;SDS011;69042;59.120;37.904;2024-03-17T00:45:14;14.73;;;6.43;;
78116;SDS011;69042;59.120;37.904;2024-03-17T00:47:41;12.75;;;6.53;;
78116;SDS011;69042;59.120;37.904;2024-03-17T00:50:09;13.52;;;5.70;;
78116;SDS011;69042;59.120;37.904;2024-03-17T00:52:37;14.02;;;6.63;;
78116;SDS011;69042;59.120;37.904;2024-03-17T00:55:05;15.13;;;6.50;;
78116;SDS011;69042;59.120;37.904;2024-03-17T00:57:32;13.63;;;6.15;;
78116;SDS011;69042;59.120;37.904;2024-03-17T00:59:59;15.32;;;6.45;;
78116;SDS011;69042;59.120;37.904;2024-03-17T01:02:25;14.82;;;6.45;;
78116;SDS011;69042;59.120;37.904;2024-03-17T01:04:52;13.05;;;6.15;;
78116;SDS011;69042;59.120;37.904;2024-03-17T01:07:18;13.55;;;6.43;;
78116;SDS011;69042;59.120;37.904;2024-03-17T01:09:46;12.75;;;5.85;;
78116;SDS011;69042;59.120;37.904;2024-03-17T01:12:14;13.68;;;6.68;;
78116;SDS011;69042;59.120;37.904;2024-03-17T01:14:41;14.25;;;6.20;;
78116;SDS011;69042;59.120;37.904;2024-03-17T01:17:07;14.15;;;7.00;;
78116;SDS011;69042;59.120;37.904;2024-03-17T01:19:33;12.07;;;5.88;;
78116;SDS011;69042;59.120;37.904;2024-03-17T01:22:00;13.32;;;6.72;;
78116;SDS011;69042;59.120;37.904;2024-03-17T01:24:27;12.45;;;6.40;;
78116;SDS011;69042;59.120;37.904;2024-03-17T01:26:57;13.07;;;6.35;;
78116;SDS011;69042;59.120;37.904;2024-03-17T01:31:52;12.52;;;5.70;;
78116;SDS011;69042;59.120;37.904;2024-03-17T01:34:19;11.80;;;6.07;;
78116;SDS011;69042;59.120;37.904;2024-03-17T01:36:45;14.48;;;6.47;;
78116;SDS011;69042;59.120;37.904;2024-03-17T01:39:11;13.18;;;6.93;;
78116;SDS011;69042;59.120;37.904;2024-03-17T01:41:38;13.32;;;6.40;;
78116;SDS011;69042;59.120;37.904;2024-03-17T01:44:04;12.65;;;6.53;;
78116;SDS011;69042;59.120;37.904;2024-03-17T01:46:30;11.77;;;6.22;;
78116;SDS011;69042;59.120;37.904;2024-03-17T01:48:57;12.32;;;6.65;;
78116;SDS011;69042;59.120;37.904;2024-03-17T01:51:24;14.30;;;6.20;;
78116;SDS011;69042;59.120;37.904;2024-03-17T01:53:51;14.55;;;7.05;;
78116;SDS011;69042;59.120;37.904;2024-03-17T01:56:18;11.05;;;6.05;;
78116;SDS011;69042;59.120;37.904;2024-03-17T01:58:45;12.38;;;6.32;;
78116;SDS011;69042;59.120;37.904;2024-03-17T02:01:12;14.60;;;6.03;;
78116;SDS011;69042;59.120;37.904;2024-03-17T02:03:41;12.88;;;6.20;;
78116;SDS011;69042;59.120;37.904;2024-03-17T02:06:08;14.77;;;6.63;;
78116;SDS011;69042;59.120;37.904;2024-03-17T02:08:47;13.80;;;6.05;;
78116;SDS011;69042;59.120;37.904;2024-03-17T02:11:24;14.75;;;6.20;;
78116;SDS011;69042;59.120;37.904;2024-03-17T02:13:57;14.65;;;6.43;;
78116;SDS011;69042;59.120;37.904;2024-03-17T02:16:24;12.32;;;6.22;;
78116;SDS011;69042;59.120;37.904;2024-03-17T02:18:57;12.65;;;6.03;;
78116;SDS011;69042;59.120;37.904;2024-03-17T02:21:25;13.07;;;6.40;;
78116;SDS011;69042;59.120;37.904;2024-03-17T02:23:55;19.50;;;6.57;;
78116;SDS011;69042;59.120;37.904;2024-03-17T02:26:22;12.45;;;5.45;;
78116;SDS011;69042;59.120;37.904;2024-03-17T02:28:51;11.63;;;5.80;;
78116;SDS011;69042;59.120;37.904;2024-03-17T02:31:17;13.35;;;6.57;;
78116;SDS011;69042;59.120;37.904;2024-03-17T02:33:44;11.50;;;6.07;;
78116;SDS011;69042;59.120;37.904;2024-03-17T02:36:11;16.48;;;6.03;;
78116;SDS011;69042;59.120;37.904;2024-03-17T02:38:39;12.95;;;6.20;;
78116;SDS011;69042;59.120;37.904;2024-03-17T02:41:25;15.27;;;6.05;;
78116;SDS011;69042;59.120;37.904;2024-03-17T02:43:52;11.98;;;6.38;;
78116;SDS011;69042;59.120;37.904;2024-03-17T02:46:19;12.77;;;6.18;;
78116;SDS011;69042;59.120;37.904;2024-03-17T02:48:47;17.02;;;6.50;;
78116;SDS011;69042;59.120;37.904;2024-03-17T02:51:18;12.30;;;6.00;;
78116;SDS011;69042;59.120;37.904;2024-03-17T02:53:47;12.38;;;6.13;;
78116;SDS011;69042;59.120;37.904;2024-03-17T02:56:14;13.38;;;5.80;;
78116;SDS011;69042;59.120;37.904;2024-03-17T02:58:47;15.32;;;6.22;;
78116;SDS011;69042;59.120;37.904;2024-03-17T03:01:14;13.63;;;6.10;;
78116;SDS011;69042;59.120;37.904;2024-03-17T03:03:41;12.45;;;5.68;;
78116;SDS011;69042;59.120;37.904;2024-03-17T03:06:08;10.93;;;6.28;;
78116;SDS011;69042;59.120;37.904;2024-03-17T03:08:39;13.75;;;6.15;;
78116;SDS011;69042;59.120;37.904;2024-03-17T03:11:08;13.45;;;6.40;;
78116;SDS011;69042;59.120;37.904;2024-03-17T03:13:40;12.48;;;6.20;;
78116;SDS011;69042;59.120;37.904;2024-03-17T03:16:10;13.90;;;6.55;;
78116;SDS011;69042;59.120;37.904;2024-03-17T03:18:38;13.43;;;6.88;;
78116;SDS011;69042;59.120;37.904;2024-03-17T03:21:04;12.98;;;6.05;;
78116;SDS011;69042;59.120;37.904;2024-03-17T03:23:31;14.02;;;6.53;;
78116;SDS011;69042;59.120;37.904;2024-03-17T03:25:59;16.50;;;6.47;;
78116;SDS011;69042;59.120;37.904;2024-03-17T03:28:31;13.00;;;6.22;;
78116;SDS011;69042;59.120;37.904;2024-03-17T03:30:59;13.07;;;6.50;;
78116;SDS011;69042;59.120;37.904;2024-03-17T03:33:27;13.63;;;6.28;;
78116;SDS011;69042;59.120;37.904;2024-03-17T03:35:54;15.57;;;6.40;;
78116;SDS011;69042;59.120;37.904;2024-03-17T03:38:21;14.07;;;6.65;;
78116;SDS011;69042;59.120;37.904;2024-03-17T03:40:48;14.18;;;6.55;;
78116;SDS011;69042;59.120;37.904;2024-03-17T03:43:15;13.18;;;5.97;;
78116;SDS011;69042;59.120;37.904;2024-03-17T03:45:41;13.80;;;7.00;;
78116;SDS011;69042;59.120;37.904;2024-03-17T03:48:08;16.27;;;6.53;;
78116;SDS011;69042;59.120;37.904;2024-03-17T03:50:35;12.80;;;6.60;;
78116;SDS011;69042;59.120;37.904;2024-03-17T03:53:01;13.15;;;5.80;;
78116;SDS011;69042;59.120;37.904;2024-03-17T03:55:28;14.00;;;6.28;;
78116;SDS011;69042;59.120;37.904;2024-03-17T03:57:55;15.93;;;6.82;;
78116;SDS011;69042;59.120;37.904;2024-03-17T04:00:22;12.77;;;6.47;;
78116;SDS011;69042;59.120;37.904;2024-03-17T04:02:50;13.13;;;6.18;;
78116;SDS011;69042;59.120;37.904;2024-03-17T04:05:17;14.23;;;6.70;;
78116;SDS011;69042;59.120;37.904;2024-03-17T04:07:45;12.45;;;6.82;;
78116;SDS011;69042;59.120;37.904;2024-03-17T04:10:13;14.25;;;6.22;;
78116;SDS011;69042;59.120;37.904;2024-03-17T04:12:42;13.30;;;5.82;;
78116;SDS011;69042;59.120;37.904;2024-03-17T04:15:08;14.88;;;6.28;;
78116;SDS011;69042;59.120;37.904;2024-03-17T04:17:38;13.35;;;6.50;;
78116;SDS011;69042;59.120;37.904;2024-03-17T04:20:05;15.13;;;6.10;;
78116;SDS011;69042;59.120;37.904;2024-03-17T04:22:34;12.88;;;6.63;;
78116;SDS011;69042;59.120;37.904;2024-03-17T04:25:01;13.93;;;6.18;;
78116;SDS011;69042;59.120;37.904;2024-03-17T04:27:29;14.45;;;6.78;;
78116;SDS011;69042;59.120;37.904;2024-03-17T04:29:56;13.75;;;5.70;;
78116;SDS011;69042;59.120;37.904;2024-03-17T04:32:25;13.00;;;6.20;;
78116;SDS011;69042;59.120;37.904;2024-03-17T04:34:53;14.93;;;6.25;;
78116;SDS011;69042;59.120;37.904;2024-03-17T04:37:20;12.75;;;5.75;;
78116;SDS011;69042;59.120;37.904;2024-03-17T04:39:46;13.68;;;6.43;;
78116;SDS011;69042;59.120;37.904;2024-03-17T04:42:13;14.60;;;6.97;;
78116;SDS011;69042;59.120;37.904;2024-03-17T04:44:41;12.65;;;6.35;;
78116;SDS011;69042;59.120;37.904;2024-03-17T04:47:08;12.60;;;6.93;;
78116;SDS011;69042;59.120;37.904;2024-03-17T04:49:37;14.13;;;6.25;;
78116;SDS011;69042;59.120;37.904;2024-03-17T04:52:05;16.80;;;6.63;;
78116;SDS011;69042;59.120;37.904;2024-03-17T04:54:31;13.65;;;5.93;;
78116;SDS011;69042;59.120;37.904;2024-03-17T04:57:00;13.15;;;6.40;;
78116;SDS011;69042;59.120;37.904;2024-03-17T04:59:27;20.50;;;6.60;;
78116;SDS011;69042;59.120;37.904;2024-03-17T05:01:55;13.30;;;6.15;;
78116;SDS011;69042;59.120;37.904;2024-03-17T05:04:21;14.73;;;6.90;;
78116;SDS011;69042;59.120;37.904;2024-03-17T05:06:49;13.80;;;6.18;;
78116;SDS011;69042;59.120;37.904;2024-03-17T05:09:21;15.55;;;6.35;;
78116;SDS011;69042;59.120;37.904;2024-03-17T05:11:52;15.65;;;6.35;;
78116;SDS011;69042;59.120;37.904;2024-03-17T05:14:18;13.95;;;6.30;;
78116;SDS011;69042;59.120;37.904;2024-03-17T05:16:47;14.48;;;6.30;;
78116;SDS011;69042;59.120;37.904;2024-03-17T05:19:14;11.93;;;5.93;;
78116;SDS011;69042;59.120;37.904;2024-03-17T05:21:41;13.77;;;6.30;;
78116;SDS011;69042;59.120;37.904;2024-03-17T05:24:07;14.32;;;6.57;;
78116;SDS011;69042;59.120;37.904;2024-03-17T05:26:34;14.95;;;7.20;;
78116;SDS011;69042;59.120;37.904;2024-03-17T05:29:00;15.57;;;6.63;;
78116;SDS011;69042;59.120;37.904;2024-03-17T05:31:26;13.82;;;6.65;;
78116;SDS011;69042;59.120;37.904;2024-03-17T05:33:55;12.85;;;6.28;;
78116;SDS011;69042;59.120;37.904;2024-03-17T05:36:21;16.95;;;6.53;;
78116;SDS011;69042;59.120;37.904;2024-03-17T05:38:47;15.35;;;6.50;;
78116;SDS011;69042;59.120;37.904;2024-03-17T05:41:14;12.20;;;6.75;;
78116;SDS011;69042;59.120;37.904;2024-03-17T05:43:40;15.57;;;6.93;;
78116;SDS011;69042;59.120;37.904;2024-03-17T05:46:07;14.18;;;6.43;;
78116;SDS011;69042;59.120;37.904;2024-03-17T05:48:39;15.30;;;6.47;;
78116;SDS011;69042;59.120;37.904;2024-03-17T05:51:07;13.98;;;6.75;;
78116;SDS011;69042;59.120;37.904;2024-03-17T05:53:36;10.73;;;5.90;;
78116;SDS011;69042;59.120;37.904;2024-03-17T05:56:07;13.63;;;6.43;;
78116;SDS011;69042;59.120;37.904;2024-03-17T05:58:35;13.65;;;6.55;;
78116;SDS011;69042;59.120;37.904;2024-03-17T06:01:02;12.85;;;5.93;;
78116;SDS011;69042;59.120;37.904;2024-03-17T06:03:31;13.25;;;5.80;;
78116;SDS011;69042;59.120;37.904;2024-03-17T06:06:01;13.70;;;6.78;;
78116;SDS011;69042;59.120;37.904;2024-03-17T06:08:28;15.45;;;6.70;;
78116;SDS011;69042;59.120;37.904;2024-03-17T06:10:54;17.38;;;7.15;;
78116;SDS011;69042;59.120;37.904;2024-03-17T06:13:22;15.25;;;7.57;;
78116;SDS011;69042;59.120;37.904;2024-03-17T06:15:50;16.75;;;6.63;;
78116;SDS011;69042;59.120;37.904;2024-03-17T06:18:17;12.68;;;6.40;;
78116;SDS011;69042;59.120;37.904;2024-03-17T06:20:44;12.32;;;6.60;;
78116;SDS011;69042;59.120;37.904;2024-03-17T06:23:12;15.93;;;7.45;;
78116;SDS011;69042;59.120;37.904;2024-03-17T06:25:46;12.15;;;6.15;;
78116;SDS011;69042;59.120;37.904;2024-03-17T06:28:15;15.13;;;7.07;;
78116;SDS011;69042;59.120;37.904;2024-03-17T06:30:42;12.88;;;6.78;;
78116;SDS011;69042;59.120;37.904;2024-03-17T06:33:13;13.73;;;6.85;;
78116;SDS011;69042;59.120;37.904;2024-03-17T06:35:43;13.23;;;6.85;;
78116;SDS011;69042;59.120;37.904;2024-03-17T06:38:09;15.68;;;7.18;;
78116;SDS011;69042;59.120;37.904;2024-03-17T06:40:36;13.43;;;6.85;;
78116;SDS011;69042;59.120;37.904;2024-03-17T06:43:02;12.32;;;6.13;;
78116;SDS011;69042;59.120;37.904;2024-03-17T06:45:31;14.38;;;7.00;;
78116;SDS011;69042;59.120;37.904;2024-03-17T06:47:58;12.20;;;6.20;;
78116;SDS011;69042;59.120;37.904;2024-03-17T06:50:25;13.38;;;6.57;;
78116;SDS011;69042;59.120;37.904;2024-03-17T06:52:52;13.43;;;7.07;;
78116;SDS011;69042;59.120;37.904;2024-03-17T06:55:19;16.42;;;6.78;;
78116;SDS011;69042;59.120;37.904;2024-03-17T06:57:47;12.50;;;6.30;;
78116;SDS011;69042;59.120;37.904;2024-03-17T07:00:14;15.95;;;6.38;;
78116;SDS011;69042;59.120;37.904;2024-03-17T07:02:44;15.32;;;7.10;;
78116;SDS011;69042;59.120;37.904;2024-03-17T07:05:13;12.85;;;5.80;;
78116;SDS011;69042;59.120;37.904;2024-03-17T07:07:41;17.80;;;6.60;;
78116;SDS011;69042;59.120;37.904;2024-03-17T07:10:09;15.57;;;7.00;;
78116;SDS011;69042;59.120;37.904;2024-03-17T07:12:40;14.35;;;7.05;;
78116;SDS011;69042;59.120;37.904;2024-03-17T07:15:07;17.13;;;6.70;;
78116;SDS011;69042;59.120;37.904;2024-03-17T07:17:34;11.80;;;5.90;;
78116;SDS011;69042;59.120;37.904;2024-03-17T07:20:00;13.95;;;6.93;;
78116;SDS011;69042;59.120;37.904;2024-03-17T07:22:28;14.73;;;7.45;;
78116;SDS011;69042;59.120;37.904;2024-03-17T07:24:56;17.58;;;7.55;;
78116;SDS011;69042;59.120;37.904;2024-03-17T07:27:26;19.63;;;7.30;;
78116;SDS011;69042;59.120;37.904;2024-03-17T07:29:55;15.48;;;6.95;;
78116;SDS011;69042;59.120;37.904;2024-03-17T07:32:22;18.65;;;7.78;;
78116;SDS011;69042;59.120;37.904;2024-03-17T07:34:52;15.27;;;7.00;;
78116;SDS011;69042;59.120;37.904;2024-03-17T07:37:20;13.35;;;5.93;;
78116;SDS011;69042;59.120;37.904;2024-03-17T07:39:47;15.32;;;6.60;;
78116;SDS011;69042;59.120;37.904;2024-03-17T07:42:15;15.07;;;7.28;;
78116;SDS011;69042;59.120;37.904;2024-03-17T07:44:45;15.07;;;7.55;;
78116;SDS011;69042;59.120;37.904;2024-03-17T07:47:11;17.90;;;7.50;;
78116;SDS011;69042;59.120;37.904;2024-03-17T07:49:39;14.73;;;7.07;;
78116;SDS011;69042;59.120;37.904;2024-03-17T07:52:05;13.27;;;6.93;;
78116;SDS011;69042;59.120;37.904;2024-03-17T07:54:32;14.68;;;7.43;;
78116;SDS011;69042;59.120;37.904;2024-03-17T07:57:01;14.70;;;7.50;;
78116;SDS011;69042;59.120;37.904;2024-03-17T07:59:28;14.70;;;7.47;;
78116;SDS011;69042;59.120;37.904;2024-03-17T08:01:55;16.80;;;7.15;;
78116;SDS011;69042;59.120;37.904;2024-03-17T08:04:24;14.13;;;7.38;;
78116;SDS011;69042;59.120;37.904;2024-03-17T08:06:51;15.30;;;7.53;;
78116;SDS011;69042;59.120;37.904;2024-03-17T08:09:17;13.30;;;5.97;;
78116;SDS011;69042;59.120;37.904;2024-03-17T08:11:44;15.32;;;7.05;;
78116;SDS011;69042;59.120;37.904;2024-03-17T08:14:13;17.23;;;6.95;;
78116;SDS011;69042;59.120;37.904;2024-03-17T08:16:42;14.65;;;7.05;;
78116;SDS011;69042;59.120;37.904;2024-03-17T08:19:08;16.33;;;7.15;;
78116;SDS011;69042;59.120;37.904;2024-03-17T08:21:36;14.63;;;7.00;;
78116;SDS011;69042;59.120;37.904;2024-03-17T08:24:04;15.48;;;6.97;;
78116;SDS011;69042;59.120;37.904;2024-03-17T08:26:31;15.77;;;7.47;;
78116;SDS011;69042;59.120;37.904;2024-03-17T08:28:58;15.75;;;6.43;;
78116;SDS011;69042;59.120;37.904;2024-03-17T08:31:25;18.05;;;6.72;;
78116;SDS011;69042;59.120;37.904;2024-03-17T08:33:52;16.55;;;6.85;;
78116;SDS011;69042;59.120;37.904;2024-03-17T08:36:19;18.13;;;7.68;;
78116;SDS011;69042;59.120;37.904;2024-03-17T08:38:47;15.23;;;6.65;;
78116;SDS011;69042;59.120;37.904;2024-03-17T08:41:13;19.65;;;6.90;;
78116;SDS011;69042;59.120;37.904;2024-03-17T08:43:41;18.35;;;6.63;;
78116;SDS011;69042;59.120;37.904;2024-03-17T08:46:10;13.65;;;7.30;;
78116;SDS011;69042;59.120;37.904;2024-03-17T08:48:38;22.38;;;7.43;;
78116;SDS011;69042;59.120;37.904;2024-03-17T08:51:06;16.63;;;6.35;;
78116;SDS011;69042;59.120;37.904;2024-03-17T08:53:33;18.95;;;7.25;;
78116;SDS011;69042;59.120;37.904;2024-03-17T08:56:02;15.52;;;7.47;;
78116;SDS011;69042;59.120;37.904;2024-03-17T08:58:29;18.35;;;7.00;;
78116;SDS011;69042;59.120;37.904;2024-03-17T09:00:57;21.77;;;7.50;;
78116;SDS011;69042;59.120;37.904;2024-03-17T09:03:25;15.07;;;6.85;;
78116;SDS011;69042;59.120;37.904;2024-03-17T09:05:52;17.35;;;7.45;;
78116;SDS011;69042;59.120;37.904;2024-03-17T09:08:21;16.17;;;6.57;;
78116;SDS011;69042;59.120;37.904;2024-03-17T09:10:49;19.17;;;7.38;;
78116;SDS011;69042;59.120;37.904;2024-03-17T09:13:21;17.38;;;6.90;;
78116;SDS011;69042;59.120;37.904;2024-03-17T09:15:56;18.85;;;7.75;;
78116;SDS011;69042;59.120;37.904;2024-03-17T09:18:27;14.88;;;6.82;;
78116;SDS011;69042;59.120;37.904;2024-03-17T09:21:01;18.25;;;7.85;;
78116;SDS011;69042;59.120;37.904;2024-03-17T09:23:29;16.75;;;6.70;;
78116;SDS011;69042;59.120;37.904;2024-03-17T09:30:59;18.83;;;7.78;;
78116;SDS011;69042;59.120;37.904;2024-03-17T09:33:28;20.75;;;7.20;;
78116;SDS011;69042;59.120;37.904;2024-03-17T09:36:28;22.85;;;8.88;;
78116;SDS011;69042;59.120;37.904;2024-03-17T09:38:48;18.98;;;6.97;;
78116;SDS011;69042;59.120;37.904;2024-03-17T09:41:22;18.52;;;7.70;;
78116;SDS011;69042;59.120;37.904;2024-03-17T09:43:53;18.00;;;7.95;;
78116;SDS011;69042;59.120;37.904;2024-03-17T09:46:25;16.25;;;6.65;;
78116;SDS011;69042;59.120;37.904;2024-03-17T09:48:53;18.30;;;7.95;;
78116;SDS011;69042;59.120;37.904;2024-03-17T09:51:24;17.10;;;7.57;;
78116;SDS011;69042;59.120;37.904;2024-03-17T09:53:52;18.70;;;7.80;;
78116;SDS011;69042;59.120;37.904;2024-03-17T09:56:20;21.73;;;7.40;;
78116;SDS011;69042;59.120;37.904;2024-03-17T09:58:48;19.02;;;8.07;;
78116;SDS011;69042;59.120;37.904;2024-03-17T10:01:17;17.80;;;7.53;;
78116;SDS011;69042;59.120;37.904;2024-03-17T10:03:46;18.48;;;8.60;;
78116;SDS011;69042;59.120;37.904;2024-03-17T10:06:25;16.67;;;8.13;;
78116;SDS011;69042;59.120;37.904;2024-03-17T10:08:55;23.95;;;8.50;;
78116;SDS011;69042;59.120;37.904;2024-03-17T10:11:34;21.27;;;7.80;;
78116;SDS011;69042;59.120;37.904;2024-03-17T10:14:03;20.23;;;8.05;;
78116;SDS011;69042;59.120;37.904;2024-03-17T10:16:35;18.38;;;8.68;;
78116;SDS011;69042;59.120;37.904;2024-03-17T10:19:10;19.77;;;8.18;;
78116;SDS011;69042;59.120;37.904;2024-03-17T10:21:42;24.58;;;8.48;;
78116;SDS011;69042;59.120;37.904;2024-03-17T10:24:11;24.48;;;8.95;;
78116;SDS011;69042;59.120;37.904;2024-03-17T10:26:41;18.83;;;7.40;;
78116;SDS011;69042;59.120;37.904;2024-03-17T10:32:03;25.33;;;8.57;;
78116;SDS011;69042;59.120;37.904;2024-03-17T10:34:40;23.73;;;8.07;;
78116;SDS011;69042;59.120;37.904;2024-03-17T10:37:08;22.77;;;8.82;;
78116;SDS011;69042;59.120;37.904;2024-03-17T10:39:39;20.80;;;8.80;;
78116;SDS011;69042;59.120;37.904;2024-03-17T10:42:07;20.63;;;8.27;;
78116;SDS011;69042;59.120;37.904;2024-03-17T10:44:35;20.20;;;7.80;;
78116;SDS011;69042;59.120;37.904;2024-03-17T10:47:02;17.48;;;7.75;;
78116;SDS011;69042;59.120;37.904;2024-03-17T10:49:36;19.13;;;8.32;;
78116;SDS011;69042;59.120;37.904;2024-03-17T10:52:04;19.52;;;8.30;;
78116;SDS011;69042;59.120;37.904;2024-03-17T10:54:32;19.40;;;8.35;;
78116;SDS011;69042;59.120;37.904;2024-03-17T10:59:38;23.92;;;8.38;;
78116;SDS011;69042;59.120;37.904;2024-03-17T11:02:16;23.45;;;8.35;;
78116;SDS011;69042;59.120;37.904;2024-03-17T11:04:52;18.50;;;8.13;;
78116;SDS011;69042;59.120;37.904;2024-03-17T11:07:20;21.35;;;9.07;;
78116;SDS011;69042;59.120;37.904;2024-03-17T11:09:48;21.02;;;8.30;;
78116;SDS011;69042;59.120;37.904;2024-03-17T11:20:39;18.98;;;7.80;;
78116;SDS011;69042;59.120;37.904;2024-03-17T11:23:07;23.75;;;9.07;;
78116;SDS011;69042;59.120;37.904;2024-03-17T11:28:01;19.33;;;9.13;;
78116;SDS011;69042;59.120;37.904;2024-03-17T11:46:54;19.40;;;7.20;;
78116;SDS011;69042;59.120;37.904;2024-03-17T11:49:27;17.00;;;7.53;;
78116;SDS011;69042;59.120;37.904;2024-03-17T11:51:56;19.92;;;8.52;;
78116;SDS011;69042;59.120;37.904;2024-03-17T11:54:25;17.55;;;8.38;;
78116;SDS011;69042;59.120;37.904;2024-03-17T11:56:54;20.92;;;8.20;;
78116;SDS011;69042;59.120;37.904;2024-03-17T11:59:25;22.02;;;8.68;;
78116;SDS011;69042;59.120;37.904;2024-03-17T12:01:52;16.65;;;7.93;;
78116;SDS011;69042;59.120;37.904;2024-03-17T12:04:20;18.13;;;7.82;;
78116;SDS011;69042;59.120;37.904;2024-03-17T12:06:48;21.40;;;8.27;;
78116;SDS011;69042;59.120;37.904;2024-03-17T12:12:00;18.42;;;8.00;;
78116;SDS011;69042;59.120;37.904;2024-03-17T12:14:37;15.40;;;6.97;;
78116;SDS011;69042;59.120;37.904;2024-03-17T12:17:06;14.77;;;7.18;;
78116;SDS011;69042;59.120;37.904;2024-03-17T12:19:34;18.88;;;6.88;;
78116;SDS011;69042;59.120;37.904;2024-03-17T12:22:01;16.73;;;7.70;;
78116;SDS011;69042;59.120;37.904;2024-03-17T12:24:29;15.77;;;6.95;;
78116;SDS011;69042;59.120;37.904;2024-03-17T12:26:56;22.10;;;7.63;;
78116;SDS011;69042;59.120;37.904;2024-03-17T12:32:15;13.77;;;6.85;;
78116;SDS011;69042;59.120;37.904;2024-03-17T12:34:42;15.88;;;6.72;;
78116;SDS011;69042;59.120;37.904;2024-03-17T12:37:15;17.38;;;7.63;;
78116;SDS011;69042;59.120;37.904;2024-03-17T12:39:45;18.60;;;6.85;;
78116;SDS011;69042;59.120;37.904;2024-03-17T12:42:16;22.38;;;7.30;;
78116;SDS011;69042;59.120;37.904;2024-03-17T12:44:49;12.52;;;6.13;;
78116;SDS011;69042;59.120;37.904;2024-03-17T12:47:17;14.50;;;6.13;;
78116;SDS011;69042;59.120;37.904;2024-03-17T12:52:24;17.45;;;6.38;;
78116;SDS011;69042;59.120;37.904;2024-03-17T12:55:08;16.65;;;6.18;;
78116;SDS011;69042;59.120;37.904;2024-03-17T13:00:45;17.13;;;6.90;;
78116;SDS011;69042;59.120;37.904;2024-03-17T13:03:21;16.70;;;6.70;;
78116;SDS011;69042;59.120;37.904;2024-03-17T13:05:50;20.80;;;6.22;;
78116;SDS011;69042;59.120;37.904;2024-03-17T13:08:17;15.98;;;5.20;;
78116;SDS011;69042;59.120;37.904;2024-03-17T13:10:44;15.48;;;6.15;;
78116;SDS011;69042;59.120;37.904;2024-03-17T13:13:12;13.50;;;6.22;;
78116;SDS011;69042;59.120;37.904;2024-03-17T13:15:41;17.60;;;6.05;;
78116;SDS011;69042;59.120;37.904;2024-03-17T13:18:08;16.23;;;5.85;;
78116;SDS011;69042;59.120;37.904;2024-03-17T13:20:35;10.57;;;5.25;;
78116;SDS011;69042;59.120;37.904;2024-03-17T13:23:04;17.33;;;5.65;;
78116;SDS011;69042;59.120;37.904;2024-03-17T13:25:31;13.05;;;5.15;;
78116;SDS011;69042;59.120;37.904;2024-03-17T13:28:02;17.85;;;5.95;;
78116;SDS011;69042;59.120;37.904;2024-03-17T13:30:30;14.90;;;5.90;;
78116;SDS011;69042;59.120;37.904;2024-03-17T13:32:59;15.77;;;5.50;;
78116;SDS011;69042;59.120;37.904;2024-03-17T13:35:26;13.98;;;6.00;;
78116;SDS011;69042;59.120;37.904;2024-03-17T13:37:55;15.18;;;5.32;;
78116;SDS011;69042;59.120;37.904;2024-03-17T13:40:25;11.35;;;5.22;;
78116;SDS011;69042;59.120;37.904;2024-03-17T13:42:52;14.20;;;5.72;;
78116;SDS011;69042;59.120;37.904;2024-03-17T13:45:20;11.00;;;5.20;;
78116;SDS011;69042;59.120;37.904;2024-03-17T13:47:52;13.70;;;5.22;;
78116;SDS011;69042;59.120;37.904;2024-03-17T13:50:21;13.63;;;5.68;;
78116;SDS011;69042;59.120;37.904;2024-03-17T13:52:49;14.15;;;5.55;;
78116;SDS011;69042;59.120;37.904;2024-03-17T13:55:16;14.18;;;5.95;;
78116;SDS011;69042;59.120;37.904;2024-03-17T13:57:44;12.20;;;4.93;;
78116;SDS011;69042;59.120;37.904;2024-03-17T14:00:12;14.95;;;5.53;;
78116;SDS011;69042;59.120;37.904;2024-03-17T14:02:42;14.05;;;5.40;;
78116;SDS011;69042;59.120;37.904;2024-03-17T14:05:16;14.23;;;5.65;;
78116;SDS011;69042;59.120;37.904;2024-03-17T14:07:44;11.95;;;5.43;;
78116;SDS011;69042;59.120;37.904;2024-03-17T14:10:12;18.23;;;5.50;;
78116;SDS011;69042;59.120;37.904;2024-03-17T14:12:39;15.75;;;5.72;;
78116;SDS011;69042;59.120;37.904;2024-03-17T14:15:09;13.55;;;5.40;;
78116;SDS011;69042;59.120;37.904;2024-03-17T14:17:40;12.90;;;4.70;;
78116;SDS011;69042;59.120;37.904;2024-03-17T14:20:07;15.40;;;5.40;;
78116;SDS011;69042;59.120;37.904;2024-03-17T14:22:37;13.43;;;5.65;;
78116;SDS011;69042;59.120;37.904;2024-03-17T14:25:05;14.05;;;5.72;;
78116;SDS011;69042;59.120;37.904;2024-03-17T14:27:32;12.93;;;5.93;;
78116;SDS011;69042;59.120;37.904;2024-03-17T14:29:58;14.15;;;5.82;;
78116;SDS011;69042;59.120;37.904;2024-03-17T14:32:24;12.65;;;5.47;;
78116;SDS011;69042;59.120;37.904;2024-03-17T14:34:51;11.70;;;5.05;;
78116;SDS011;69042;59.120;37.904;2024-03-17T14:37:17;17.48;;;6.63;;
78116;SDS011;69042;59.120;37.904;2024-03-17T14:39:43;15.10;;;6.05;;
78116;SDS011;69042;59.120;37.904;2024-03-17T14:42:10;12.43;;;5.35;;
78116;SDS011;69042;59.120;37.904;2024-03-17T14:44:36;14.90;;;5.28;;
78116;SDS011;69042;59.120;37.904;2024-03-17T14:47:03;14.48;;;5.32;;
78116;SDS011;69042;59.120;37.904;2024-03-17T14:49:30;11.02;;;5.25;;
78116;SDS011;69042;59.120;37.904;2024-03-17T14:51:57;12.48;;;5.10;;
78116;SDS011;69042;59.120;37.904;2024-03-17T14:54:23;12.32;;;5.20;;
78116;SDS011;69042;59.120;37.904;2024-03-17T14:56:49;11.88;;;5.18;;
78116;SDS011;69042;59.120;37.904;2024-03-17T14:59:16;12.65;;;5.18;;
78116;SDS011;69042;59.120;37.904;2024-03-17T15:01:47;16.55;;;5.63;;
78116;SDS011;69042;59.120;37.904;2024-03-17T15:04:14;14.75;;;5.40;;
78116;SDS011;69042;59.120;37.904;2024-03-17T15:06:40;12.73;;;5.40;;
78116;SDS011;69042;59.120;37.904;2024-03-17T15:09:09;10.90;;;4.82;;
78116;SDS011;69042;59.120;37.904;2024-03-17T15:11:35;13.73;;;4.93;;
78116;SDS011;69042;59.120;37.904;2024-03-17T15:14:01;15.25;;;5.60;;
78116;SDS011;69042;59.120;37.904;2024-03-17T15:16:30;13.48;;;5.45;;
78116;SDS011;69042;59.120;37.904;2024-03-17T15:18:56;17.75;;;5.22;;